Triuchirapalli, India

9:44 PM IST on April 19, 2018 (GMT +0530)
Tiruchirappalli

Weather History for VOTR - March, 2013

Change the Weather History Date:

Sunday, March 31, 2013

  Actual Average Record
Temperature  
Mean Temperature 90 °F -  
Max Temperature 102 °F 94 °F 104 °F (2014)
Min Temperature 79 °F 80 °F 70 °F (2014)
Cooling Degree Days 26    
Growing Degree Days 40 (Base 50)    
Moisture  
Dew Point 73 °F    
Average Humidity 59    
Maximum Humidity 100    
Minimum Humidity 24    
Precipitation  
Precipitation 0.00 in - - ()
Sea Level Pressure  
Sea Level Pressure 29.77 in    
Wind  
Wind Speed 5 mph ()    
Max Wind Speed 24 mph    
Max Gust Speed -    
Visibility 3.5 miles    
Events      
Averages and records for this station are not official NWS values.
T = Trace of Precipitation, MM = Missing Value Source: Averaged Metar Reports

Daily Weather History Graph

Daily Weather History Graph

Search for Another Location

Airport or City:

Astronomy

Mar. 31, 2013 Rise Set
Actual Time 6:12 AM IST 6:25 PM IST
Civil Twilight 5:51 AM IST 6:47 PM IST
Nautical Twilight 5:27 AM IST 7:11 PM IST
Astronomical Twilight 5:02 AM IST 7:36 PM IST
Moon 10:21 PM IST (3/31) 9:18 AM IST (3/31)
Length of Visible Light 12h 55m
Length of Day
12h 13m
Waning Gibbous, 81% of the Moon is Illuminated
Mar 31
Waning Gibbous
Apr 3
Last Quarter
Apr 10
New
Apr 18
First Quarter
Apr 26
Full

Hourly Weather History & Observations

Time (IST) Temp. Heat Index Dew Point Humidity Pressure Visibility Wind Dir Wind Speed Gust Speed Precip Events Conditions
12:10 AM 84.2 °F 92.3 °F 75.2 °F 74% 29.80 in 3.7 mi SE 2.3 mph - N/A   Partly Cloudy
12:40 AM 84.2 °F 92.3 °F 75.2 °F 74% 29.80 in 3.7 mi SSE 2.3 mph - N/A   Partly Cloudy
1:10 AM 84.2 °F 92.3 °F 75.2 °F 74% 29.80 in 3.7 mi SSE 3.5 mph - N/A   Partly Cloudy
1:40 AM 82.4 °F 90.9 °F 77.0 °F 84% 29.77 in 3.7 mi SSE 2.3 mph - N/A   Partly Cloudy
2:10 AM 82.4 °F 89.5 °F 75.2 °F 79% 29.77 in 3.7 mi SSE 2.3 mph - N/A   Scattered Clouds
2:30 AM 74 °F - 74 °F 100% 29.75 in 2 mi SE 3.5 mph - -   Haze
2:40 AM 82.4 °F 89.5 °F 75.2 °F 79% 29.77 in 3.7 mi SSE 2.3 mph - N/A   Scattered Clouds
3:40 AM 82.4 °F 89.5 °F 75.2 °F 79% 29.77 in 3.1 mi SSE 24.2 mph - N/A   Haze
4:10 AM 82.4 °F 89.5 °F 75.2 °F 79% 29.77 in 3.1 mi SSE 2.3 mph - N/A   Haze
4:40 AM 82.4 °F 89.5 °F 75.2 °F 79% 29.77 in 3.1 mi South 2.3 mph - N/A   Haze
5:10 AM 80.6 °F 86.2 °F 75.2 °F 84% 29.77 in 3.1 mi South 2.3 mph - N/A   Haze
5:30 AM 81 °F - 76 °F 81% 29.77 in 2 mi SE 3.5 mph - -   Haze
5:40 AM 82.4 °F 90.9 °F 77.0 °F 84% 29.77 in 3.1 mi SE 4.6 mph - N/A   Haze
6:40 AM 82.4 °F 89.5 °F 75.2 °F 79% 29.77 in 1.9 mi SE 2.3 mph - N/A   Haze
7:10 AM 84.2 °F 92.3 °F 75.2 °F 74% 29.80 in 1.9 mi ESE 2.3 mph - N/A   Haze
7:40 AM 86.0 °F 96.9 °F 77.0 °F 74% 29.80 in 2.5 mi SE 4.6 mph - N/A   Haze
8:10 AM 87.8 °F 99.7 °F 77.0 °F 70% 29.83 in 2.5 mi South 3.5 mph - N/A   Haze
8:30 AM 88 °F - 75 °F 57% 29.83 in 2 mi SSE 3.5 mph - -   Haze
8:40 AM 87.8 °F 97.6 °F 75.2 °F 66% 29.83 in 2.5 mi SSW 3.5 mph - N/A   Haze
9:40 AM 91.4 °F 100.1 °F 73.4 °F 55% 29.83 in 3.1 mi South 5.8 mph - N/A   Haze
10:10 AM 93.2 °F 102.4 °F 73.4 °F 52% 29.83 in 3.7 mi South 4.6 mph - N/A   Partly Cloudy
10:40 AM 95.0 °F 104.5 °F 73.4 °F 49% 29.83 in 3.7 mi South 5.8 mph - N/A   Partly Cloudy
11:10 AM 96.8 °F 107.3 °F 73.4 °F 47% 29.83 in 3.7 mi South 6.9 mph - N/A   Partly Cloudy
11:30 AM 99 °F - 70 °F 30% 29.80 in 0 mi South 6.9 mph - -   Haze
11:40 AM 98.6 °F 107.7 °F 71.6 °F 42% 29.80 in 5.0 mi SSW 4.6 mph - N/A   Scattered Clouds
12:10 PM 100.4 °F 109.3 °F 71.6 °F 39% 29.80 in 5.0 mi SSE 6.9 mph - N/A   Scattered Clouds
12:40 PM 100.4 °F 109.3 °F 71.6 °F 39% 29.77 in 5.0 mi SE 6.9 mph - N/A   Scattered Clouds
1:10 PM 102.2 °F 111.7 °F 71.6 °F 37% 29.74 in 5.0 mi South 4.6 mph - N/A   Scattered Clouds
1:40 PM 102.2 °F 111.7 °F 71.6 °F 37% 29.74 in 5.0 mi SSW 5.8 mph - N/A   Scattered Clouds
2:10 PM 102.2 °F 111.7 °F 71.6 °F 37% 29.71 in 5.0 mi SE 6.9 mph - N/A   Scattered Clouds
2:30 PM 101 °F - 67 °F 24% 29.70 in 2 mi ESE 6.9 mph - -   Haze
2:40 PM 100.4 °F 106.3 °F 68.0 °F 35% 29.71 in 5.0 mi ESE 4.6 mph - N/A   Scattered Clouds
3:10 PM 102.2 °F 108.4 °F 68.0 °F 33% 29.71 in 5.0 mi SSE 4.6 mph - N/A   Scattered Clouds
3:40 PM 102.2 °F 108.4 °F 68.0 °F 33% 29.71 in 5.0 mi South 5.8 mph - N/A   Scattered Clouds
4:10 PM 102.2 °F 108.4 °F 68.0 °F 33% 29.71 in 5.0 mi South 9.2 mph - N/A   Scattered Clouds
4:40 PM 100.4 °F 106.3 °F 68.0 °F 35% 29.68 in 5.0 mi SSE 10.4 mph - N/A   Scattered Clouds
5:10 PM 98.6 °F 105.5 °F 69.8 °F 39% 29.71 in 5.0 mi SSE 12.7 mph - N/A   Partly Cloudy
5:30 PM 96 °F - 73 °F 38% 29.70 in 2 mi SSE 11.5 mph - -   Haze
5:40 PM 96.8 °F 105.1 °F 71.6 °F 44% 29.71 in 5.0 mi SSE 12.7 mph - N/A   Partly Cloudy
6:10 PM 95.0 °F 104.5 °F 73.4 °F 49% 29.71 in 3.7 mi SSE 11.5 mph - N/A   Partly Cloudy
6:40 PM 93.2 °F 102.4 °F 73.4 °F 52% 29.71 in 3.7 mi SSE 12.7 mph - N/A   Partly Cloudy
7:10 PM 91.4 °F 102.5 °F 75.2 °F 59% 29.74 in 3.7 mi SSE 11.5 mph - N/A   Partly Cloudy
7:40 PM 89.6 °F 98.2 °F 73.4 °F 59% 29.77 in 3.7 mi South 11.5 mph - N/A   Partly Cloudy
8:10 PM 89.6 °F 98.2 °F 73.4 °F 59% 29.77 in 3.7 mi SSE 6.9 mph - N/A   Partly Cloudy
8:30 PM 89 °F - 73 °F 51% 29.78 in 2 mi SSE 9.2 mph - -   Haze
8:40 PM 89.6 °F 99.8 °F 75.2 °F 62% 29.77 in 3.7 mi SSE 9.2 mph - N/A   Partly Cloudy
9:10 PM 87.8 °F 97.6 °F 75.2 °F 66% 29.80 in 3.7 mi SSE 8.1 mph - N/A   Partly Cloudy
9:40 PM 86.0 °F 95.1 °F 75.2 °F 70% 29.80 in 3.7 mi SSE 8.1 mph - N/A   Partly Cloudy
10:10 PM 86.0 °F 95.1 °F 75.2 °F 70% 29.80 in 3.7 mi SSE 6.9 mph - N/A   Partly Cloudy
10:40 PM 86.0 °F 95.1 °F 75.2 °F 70% 29.83 in 3.7 mi South 3.5 mph - N/A   Partly Cloudy
11:10 PM 86.0 °F 95.1 °F 75.2 °F 70% 29.83 in 3.7 mi SSE 3.5 mph - N/A   Partly Cloudy
11:30 PM 85 °F - 74 °F 62% 29.82 in 2 mi SSE 3.5 mph - -   Haze
11:40 PM 84.2 °F 92.3 °F 75.2 °F 74% 29.83 in 3.7 mi SSE 4.6 mph - N/A   Partly Cloudy